Time;durP1;ratioP1;P1;durP2;ratioP2;P2;SDS_P1;SDS_P2;PMS_P1;PMS_P2;Temp;Humidity;BMP_temperature;BMP_pressure;BME280_temperature;BME280_humidity;BME280_pressure;Samples;Min_cycle;Max_cycle;Signal;HPM_P1;HPM_P2
2021/06/20 00:01:33;;;;;;;10.40;7.32;;;24.60;61.90;;;;;;5001616;28;20480;-69
2021/06/20 00:03:59;;;;;;;8.32;7.03;;;24.60;62.20;;;;;;5004798;28;20045;-69
2021/06/20 00:06:36;;;;;;;12.95;7.95;;;24.50;62.00;;;;;;4999737;28;20038;-68
2021/06/20 00:09:05;;;;;;;9.80;8.18;;;24.60;63.00;;;;;;5005478;28;20043;-68
2021/06/20 00:11:32;;;;;;;9.80;7.57;;;24.50;62.60;;;;;;5002795;28;20034;-68
2021/06/20 00:13:58;;;;;;;10.77;7.68;;;24.50;62.30;;;;;;4999996;28;20061;-68
2021/06/20 00:16:25;;;;;;;12.40;8.13;;;24.50;62.60;;;;;;4998020;28;20085;-68
2021/06/20 00:18:51;;;;;;;10.82;7.82;;;24.50;62.60;;;;;;4998166;28;20405;-68
2021/06/20 00:21:18;;;;;;;11.52;7.95;;;24.40;62.60;;;;;;4996800;28;20038;-68
2021/06/20 00:23:45;;;;;;;9.52;7.57;;;24.50;62.60;;;;;;4998090;28;20112;-68
2021/06/20 00:26:10;;;;;;;9.18;8.00;;;24.50;62.60;;;;;;5001334;28;20034;-68
2021/06/20 00:28:37;;;;;;;10.25;7.53;;;24.50;62.90;;;;;;5000407;28;20085;-69
2021/06/20 00:31:03;;;;;;;9.75;8.05;;;24.50;62.90;;;;;;5000162;28;20026;-68
2021/06/20 00:33:28;;;;;;;9.25;7.80;;;24.50;62.70;;;;;;5001619;28;20638;-68
2021/06/20 00:35:55;;;;;;;10.57;7.97;;;24.50;62.90;;;;;;4999070;28;20045;-68
2021/06/20 00:38:21;;;;;;;9.20;8.27;;;24.60;62.90;;;;;;5000685;28;20046;-68
2021/06/20 00:40:46;;;;;;;9.27;8.25;;;24.50;63.00;;;;;;4998767;28;20396;-68
2021/06/20 00:43:12;;;;;;;10.20;7.80;;;24.60;63.10;;;;;;5000476;28;20109;-68
2021/06/20 00:45:39;;;;;;;8.98;8.13;;;24.50;63.10;;;;;;5005226;28;20453;-69
2021/06/20 00:48:05;;;;;;;9.93;8.02;;;24.50;63.20;;;;;;4999235;28;20057;-68
2021/06/20 00:50:30;;;;;;;8.93;8.02;;;24.50;63.20;;;;;;5010203;28;20031;-69
2021/06/20 00:52:59;;;;;;;9.35;7.63;;;24.40;63.20;;;;;;4999376;28;20045;-68
2021/06/20 00:55:29;;;;;;;9.48;8.13;;;24.40;63.10;;;;;;4998400;28;20516;-69
2021/06/20 00:57:57;;;;;;;8.82;7.93;;;24.40;63.90;;;;;;4999557;28;20545;-68
2021/06/20 01:00:23;;;;;;;11.60;8.25;;;24.40;63.60;;;;;;5000490;28;20034;-68
2021/06/20 01:02:48;;;;;;;8.95;7.53;;;24.40;63.60;;;;;;4997369;28;20033;-68
2021/06/20 01:05:14;;;;;;;9.27;7.95;;;24.30;63.30;;;;;;4998708;28;20044;-69
2021/06/20 01:07:40;;;;;;;9.70;8.18;;;24.30;63.80;;;;;;4999516;28;20033;-69
2021/06/20 01:10:07;;;;;;;13.30;8.63;;;24.30;63.90;;;;;;4999903;28;20113;-68
2021/06/20 01:12:33;;;;;;;10.40;7.40;;;24.30;64.00;;;;;;4993715;28;20039;-68
2021/06/20 01:14:59;;;;;;;14.10;8.70;;;24.20;63.90;;;;;;5004278;28;20034;-68
2021/06/20 01:17:25;;;;;;;9.40;8.40;;;24.10;64.10;;;;;;4998634;28;20520;-69
2021/06/20 01:19:51;;;;;;;10.45;8.20;;;24.00;64.10;;;;;;4998655;28;20045;-68
2021/06/20 01:22:32;;;;;;;10.73;8.93;;;24.00;64.30;;;;;;4998745;28;20045;-68
2021/06/20 01:25:02;;;;;;;13.20;8.68;;;23.90;65.40;;;;;;4997471;28;20088;-68
2021/06/20 01:27:38;;;;;;;17.05;11.13;;;23.90;64.90;;;;;;4998760;28;20128;-68
2021/06/20 01:30:05;;;;;;;12.80;10.60;;;23.80;65.30;;;;;;4998448;28;20034;-68
2021/06/20 01:32:32;;;;;;;25.50;15.80;;;23.80;65.00;;;;;;4998402;28;20536;-68
2021/06/20 01:34:58;;;;;;;22.70;14.77;;;23.80;65.20;;;;;;4998144;28;20038;-68
2021/06/20 01:37:24;;;;;;;22.20;14.43;;;23.80;65.10;;;;;;5003643;28;20037;-69
2021/06/20 01:39:50;;;;;;;15.27;11.32;;;23.70;65.20;;;;;;4997697;28;20536;-68
2021/06/20 01:42:17;;;;;;;12.30;10.77;;;23.70;65.40;;;;;;4999144;28;20506;-68
2021/06/20 01:44:53;;;;;;;10.13;8.93;;;23.70;65.60;;;;;;4998169;28;20042;-68
2021/06/20 01:47:22;;;;;;;11.73;9.30;;;23.70;66.30;;;;;;4997234;28;20041;-69
2021/06/20 01:49:48;;;;;;;9.38;8.07;;;23.70;65.80;;;;;;4999278;28;20109;-68
2021/06/20 01:52:21;;;;;;;11.57;9.15;;;23.70;65.50;;;;;;4999192;28;20038;-68
2021/06/20 01:54:50;;;;;;;10.77;8.88;;;23.70;66.50;;;;;;5008570;28;20034;-68
2021/06/20 01:57:37;;;;;;;10.10;9.00;;;23.70;66.00;;;;;;5002388;28;20034;-68
2021/06/20 02:00:09;;;;;;;10.52;8.50;;;23.70;65.90;;;;;;5001232;28;20513;-68
2021/06/20 02:02:35;;;;;;;10.93;8.77;;;23.70;65.90;;;;;;5001110;28;20100;-68
2021/06/20 02:05:01;;;;;;;9.32;8.43;;;23.60;65.60;;;;;;5001545;28;20038;-68
2021/06/20 02:07:27;;;;;;;11.63;8.50;;;23.70;65.50;;;;;;5001760;28;20099;-69
2021/06/20 02:09:54;;;;;;;11.43;9.05;;;23.60;65.70;;;;;;5001688;28;20034;-68
2021/06/20 02:12:24;;;;;;;9.68;8.45;;;23.60;65.80;;;;;;5000585;28;20125;-68
2021/06/20 02:14:50;;;;;;;9.77;8.77;;;23.60;65.70;;;;;;5002015;28;20038;-69
2021/06/20 02:17:22;;;;;;;10.32;8.45;;;23.60;65.90;;;;;;5002263;28;20552;-68
2021/06/20 02:19:50;;;;;;;10.95;9.13;;;23.60;66.00;;;;;;5001094;28;20087;-68
2021/06/20 02:22:15;;;;;;;10.48;9.20;;;23.60;66.00;;;;;;5002198;28;20069;-68
2021/06/20 02:24:41;;;;;;;9.68;8.73;;;23.50;66.00;;;;;;4999825;28;20053;-68
2021/06/20 02:27:10;;;;;;;11.30;8.50;;;23.50;66.00;;;;;;5001935;28;20065;-68
2021/06/20 02:29:37;;;;;;;10.85;8.75;;;23.50;66.00;;;;;;5006398;28;20037;-68
2021/06/20 02:32:04;;;;;;;11.25;9.77;;;23.50;66.30;;;;;;5016706;28;20125;-68
2021/06/20 02:34:29;;;;;;;10.80;9.18;;;23.50;66.40;;;;;;5001121;28;20038;-69
2021/06/20 02:36:55;;;;;;;10.93;9.70;;;23.40;66.60;;;;;;5001170;28;21401;-69
2021/06/20 02:39:21;;;;;;;12.25;10.85;;;23.30;66.60;;;;;;5002688;28;20042;-68
2021/06/20 02:41:50;;;;;;;16.17;11.52;;;23.30;66.70;;;;;;5000943;28;20406;-68
2021/06/20 02:44:18;;;;;;;13.43;11.82;;;23.30;67.80;;;;;;5001857;28;20151;-68
2021/06/20 02:46:44;;;;;;;20.52;13.27;;;23.30;67.10;;;;;;5001762;28;20092;-68
2021/06/20 02:49:10;;;;;;;16.45;13.55;;;23.20;67.30;;;;;;5002116;28;20050;-68
2021/06/20 02:51:36;;;;;;;19.27;14.23;;;23.20;67.60;;;;;;5004292;28;20117;-68
2021/06/20 02:54:01;;;;;;;15.02;13.13;;;23.10;67.80;;;;;;5007030;28;20038;-68
2021/06/20 02:56:27;;;;;;;14.40;12.82;;;23.10;67.90;;;;;;5001857;28;20103;-69
2021/06/20 02:58:52;;;;;;;17.55;13.82;;;23.00;68.00;;;;;;5003225;28;20184;-70
2021/06/20 03:01:18;;;;;;;15.80;13.18;;;23.00;68.50;;;;;;5001848;28;20242;-68
2021/06/20 03:03:44;;;;;;;19.02;14.00;;;22.90;68.50;;;;;;4999546;28;20041;-68
2021/06/20 03:06:11;;;;;;;17.02;13.45;;;22.90;68.50;;;;;;5001911;28;20177;-68
2021/06/20 03:08:36;;;;;;;15.90;12.40;;;22.80;68.80;;;;;;5000436;28;20038;-68
2021/06/20 03:11:02;;;;;;;16.90;13.10;;;22.80;68.70;;;;;;4998158;28;20041;-68
2021/06/20 03:13:28;;;;;;;15.32;12.10;;;22.80;69.00;;;;;;5005797;28;20033;-69
2021/06/20 03:15:55;;;;;;;13.43;11.98;;;22.80;68.90;;;;;;5005261;28;20034;-68
2021/06/20 03:18:20;;;;;;;12.93;11.55;;;22.80;69.20;;;;;;5000669;28;20564;-68
2021/06/20 03:20:46;;;;;;;14.07;12.18;;;22.80;69.00;;;;;;5001160;28;20045;-68
2021/06/20 03:23:12;;;;;;;15.27;12.27;;;22.80;69.20;;;;;;5005237;28;20046;-68
2021/06/20 03:25:39;;;;;;;14.77;12.75;;;22.90;69.30;;;;;;5000977;28;20033;-68
2021/06/20 03:28:06;;;;;;;14.95;12.32;;;22.90;69.20;;;;;;5001707;28;20034;-68
2021/06/20 03:30:31;;;;;;;62.15;13.65;;;22.90;69.20;;;;;;4999292;28;20088;-68
2021/06/20 03:32:57;;;;;;;19.42;12.20;;;22.90;69.30;;;;;;5001746;28;20508;-69
2021/06/20 03:35:23;;;;;;;14.15;11.73;;;22.90;69.10;;;;;;4999672;28;20529;-68
2021/06/20 03:37:48;;;;;;;13.57;11.73;;;23.00;69.40;;;;;;5001217;28;20031;-69
2021/06/20 03:40:15;;;;;;;12.98;10.82;;;23.00;69.20;;;;;;5000926;28;20498;-68
2021/06/20 03:42:40;;;;;;;13.07;10.70;;;23.00;68.90;;;;;;4998612;28;20387;-68
2021/06/20 03:45:08;;;;;;;13.82;10.65;;;23.10;69.00;;;;;;5015508;28;20022;-68
2021/06/20 03:47:34;;;;;;;12.63;10.95;;;23.10;69.00;;;;;;5001293;28;20092;-69
2021/06/20 03:50:00;;;;;;;13.35;10.68;;;23.20;68.80;;;;;;5001109;28;20124;-68
2021/06/20 03:52:26;;;;;;;11.95;10.05;;;23.20;68.60;;;;;;5004193;28;20065;-68
2021/06/20 03:54:52;;;;;;;11.40;9.68;;;23.20;68.60;;;;;;5000011;28;20453;-68
2021/06/20 03:57:19;;;;;;;13.85;10.10;;;23.30;68.70;;;;;;5001081;28;20030;-68
2021/06/20 03:59:46;;;;;;;12.75;9.90;;;23.40;68.30;;;;;;5001264;28;20114;-69
2021/06/20 04:02:11;;;;;;;11.20;8.95;;;23.40;68.60;;;;;;4998932;28;20054;-69
2021/06/20 04:04:39;;;;;;;14.02;9.15;;;23.50;68.40;;;;;;4999424;28;20567;-68
2021/06/20 04:07:06;;;;;;;10.38;9.30;;;23.50;68.30;;;;;;5001613;28;20045;-68
2021/06/20 04:09:31;;;;;;;10.90;8.93;;;23.60;68.20;;;;;;5005227;28;20122;-68
2021/06/20 04:11:57;;;;;;;12.50;9.05;;;23.60;68.00;;;;;;4998043;28;20113;-69
2021/06/20 04:14:23;;;;;;;9.88;8.95;;;23.60;67.90;;;;;;4999397;28;20117;-68
2021/06/20 04:16:49;;;;;;;12.65;8.65;;;23.70;67.80;;;;;;4999619;28;20117;-69
2021/06/20 04:19:15;;;;;;;10.20;8.80;;;23.70;67.60;;;;;;5000378;28;20030;-68
2021/06/20 04:21:41;;;;;;;10.60;8.75;;;23.80;67.60;;;;;;5000162;28;20038;-69
2021/06/20 04:24:07;;;;;;;12.10;8.52;;;23.80;67.60;;;;;;5000268;28;20042;-69
2021/06/20 04:26:33;;;;;;;16.15;8.68;;;23.80;67.60;;;;;;4998608;28;20541;-69
2021/06/20 04:28:59;;;;;;;17.88;8.90;;;23.80;67.80;;;;;;4999531;28;20046;-67
2021/06/20 04:31:25;;;;;;;23.23;6.93;;;23.80;68.60;;;;;;5002044;28;20034;-65
2021/06/20 04:33:50;;;;;;;24.92;5.97;;;23.80;69.10;;;;;;4993163;28;20099;-66
2021/06/20 04:36:16;;;;;;;13.68;4.72;;;23.70;68.80;;;;;;4995196;28;20034;-65
2021/06/20 04:38:43;;;;;;;17.70;5.25;;;23.60;68.80;;;;;;4995370;28;20755;-65
2021/06/20 04:41:12;;;;;;;18.33;5.63;;;23.40;69.60;;;;;;4995847;28;20045;-65
2021/06/20 04:46:30;;;;;;;19.25;5.22;;;23.00;70.80;;;;;;4995606;28;20034;-66
2021/06/20 04:48:56;;;;;;;;;;;22.80;73.30;;;;;;4999544;28;20096;-66
2021/06/20 04:51:22;;;;;;;13.07;5.30;;;22.70;71.60;;;;;;4997980;28;19921;-66
2021/06/20 04:53:49;;;;;;;15.30;5.68;;;22.60;71.50;;;;;;4995538;28;20650;-65
2021/06/20 04:56:14;;;;;;;20.50;6.45;;;22.60;72.70;;;;;;4998166;28;20038;-66
2021/06/20 04:58:41;;;;;;;16.27;5.30;;;22.50;73.00;;;;;;4996776;28;20031;-65
2021/06/20 05:01:07;;;;;;;15.70;4.70;;;22.50;73.30;;;;;;4995165;28;20030;-66
2021/06/20 05:03:33;;;;;;;14.10;4.60;;;22.50;73.20;;;;;;4996066;28;20045;-66
2021/06/20 05:05:58;;;;;;;13.57;4.45;;;22.40;73.30;;;;;;4996049;28;20026;-66
2021/06/20 05:08:24;;;;;;;13.70;4.38;;;22.30;73.60;;;;;;4993932;28;20104;-65
2021/06/20 05:10:53;;;;;;;16.25;4.93;;;22.30;73.90;;;;;;4991964;28;20101;-66
2021/06/20 05:13:20;;;;;;;14.95;5.15;;;22.20;74.60;;;;;;4995806;28;20034;-66
2021/06/20 05:15:46;;;;;;;16.73;4.95;;;22.20;74.60;;;;;;4995638;28;20034;-66
2021/06/20 05:18:12;;;;;;;15.57;4.88;;;22.20;74.60;;;;;;5000593;28;20088;-66
2021/06/20 05:20:38;;;;;;;16.33;4.55;;;22.10;74.60;;;;;;4994855;28;20030;-66
2021/06/20 05:23:04;;;;;;;15.63;4.78;;;22.10;75.00;;;;;;4994596;28;20574;-65
2021/06/20 05:25:30;;;;;;;16.13;4.65;;;22.10;75.10;;;;;;4995214;28;20445;-66
2021/06/20 05:27:55;;;;;;;17.00;5.13;;;22.10;75.10;;;;;;4998322;28;20061;-66
2021/06/20 05:30:21;;;;;;;17.63;5.22;;;22.10;75.30;;;;;;4997195;28;20045;-65
2021/06/20 05:32:49;;;;;;;16.85;5.13;;;22.10;75.30;;;;;;4993876;28;20441;-66
2021/06/20 05:35:16;;;;;;;22.15;4.75;;;22.10;75.60;;;;;;4995243;28;20038;-66
2021/06/20 05:37:41;;;;;;;20.75;5.07;;;22.10;75.90;;;;;;4996338;28;20076;-66
2021/06/20 05:40:08;;;;;;;17.52;4.97;;;22.00;76.10;;;;;;4996324;28;21869;-66
2021/06/20 05:42:33;;;;;;;22.70;5.07;;;22.00;76.00;;;;;;4993741;28;20033;-65
2021/06/20 05:44:59;;;;;;;13.23;4.85;;;22.00;76.40;;;;;;4998382;28;20037;-66
2021/06/20 05:47:25;;;;;;;21.50;5.60;;;21.90;76.10;;;;;;4994513;28;20048;-66
2021/06/20 05:49:50;;;;;;;13.75;4.50;;;21.90;76.10;;;;;;4998015;28;20113;-66
2021/06/20 05:52:16;;;;;;;13.98;4.15;;;21.90;76.50;;;;;;4995491;28;20073;-65
2021/06/20 05:54:49;;;;;;;13.10;4.65;;;21.80;76.50;;;;;;4996923;28;20041;-66
2021/06/20 05:57:16;;;;;;;13.35;4.25;;;21.80;76.90;;;;;;4999862;28;20044;-66
2021/06/20 05:59:41;;;;;;;17.33;4.45;;;21.70;76.90;;;;;;4997541;28;20102;-66
2021/06/20 06:02:07;;;;;;;13.60;4.35;;;21.80;77.20;;;;;;4985587;28;20055;-65
2021/06/20 06:04:33;;;;;;;12.35;4.45;;;21.70;77.10;;;;;;4995015;28;20069;-66
2021/06/20 06:06:58;;;;;;;15.32;4.35;;;21.70;77.20;;;;;;4994056;28;20041;-66
2021/06/20 06:09:24;;;;;;;18.05;4.63;;;21.70;77.50;;;;;;4993877;28;20051;-65
2021/06/20 06:11:50;;;;;;;17.13;4.70;;;21.80;77.60;;;;;;4993950;28;20945;-66
2021/06/20 06:14:16;;;;;;;15.80;4.60;;;21.80;77.30;;;;;;4999064;28;20041;-65
2021/06/20 06:16:42;;;;;;;20.15;5.00;;;21.80;77.10;;;;;;4993239;28;20053;-66
2021/06/20 06:19:09;;;;;;;15.05;4.85;;;21.80;77.20;;;;;;4995036;28;20038;-66
2021/06/20 06:21:36;;;;;;;14.52;4.65;;;21.80;77.30;;;;;;4992754;28;20038;-66
2021/06/20 06:24:02;;;;;;;13.38;4.22;;;21.80;77.50;;;;;;4993804;28;20121;-65
2021/06/20 06:26:28;;;;;;;20.23;5.28;;;21.80;77.70;;;;;;4995424;28;20034;-66
2021/06/20 06:28:53;;;;;;;16.10;4.78;;;21.80;77.90;;;;;;4993787;28;20053;-66
2021/06/20 06:31:19;;;;;;;12.80;4.85;;;21.80;77.70;;;;;;4992217;28;20065;-64
2021/06/20 06:33:45;;;;;;;20.90;5.13;;;21.80;78.60;;;;;;4992621;28;20030;-66
2021/06/20 06:36:11;;;;;;;16.05;4.68;;;21.80;77.90;;;;;;4991545;28;20054;-66
2021/06/20 06:38:36;;;;;;;15.80;5.00;;;21.80;77.90;;;;;;4995621;28;20030;-66
2021/06/20 06:41:02;;;;;;;15.13;5.13;;;21.80;77.90;;;;;;4998074;28;20037;-66
2021/06/20 06:43:28;;;;;;;15.60;4.55;;;21.80;78.00;;;;;;4995102;28;20031;-66
2021/06/20 06:45:53;;;;;;;19.25;5.43;;;21.90;78.30;;;;;;5001171;28;20695;-66
2021/06/20 06:48:19;;;;;;;16.77;4.97;;;21.90;78.60;;;;;;5000413;28;20069;-66
2021/06/20 06:50:45;;;;;;;17.73;4.78;;;21.90;78.60;;;;;;4994931;28;20404;-66
2021/06/20 06:53:12;;;;;;;19.52;5.00;;;22.00;78.50;;;;;;4997655;28;20045;-66
2021/06/20 06:55:37;;;;;;;14.30;4.32;;;22.00;78.40;;;;;;4995437;28;20087;-66
2021/06/20 06:58:03;;;;;;;16.45;4.47;;;22.00;78.50;;;;;;4997503;28;20468;-65
2021/06/20 07:00:29;;;;;;;18.33;5.00;;;22.10;79.00;;;;;;4996850;28;20650;-66
2021/06/20 07:02:56;;;;;;;13.13;4.75;;;22.10;79.10;;;;;;4995539;28;20058;-67
2021/06/20 07:05:22;;;;;;;24.48;4.50;;;22.20;78.90;;;;;;4994713;28;20034;-66
2021/06/20 07:07:48;;;;;;;15.18;4.50;;;22.30;78.60;;;;;;4996129;28;20037;-66
2021/06/20 07:10:14;;;;;;;15.75;4.38;;;22.30;78.40;;;;;;4993645;28;20050;-66
2021/06/20 07:12:40;;;;;;;19.95;4.97;;;22.30;78.10;;;;;;4995372;28;20061;-66
2021/06/20 07:15:06;;;;;;;13.88;4.95;;;22.40;77.90;;;;;;4993340;28;20512;-66
2021/06/20 07:17:33;;;;;;;15.52;5.30;;;22.40;77.90;;;;;;4997799;28;20115;-66
2021/06/20 07:19:59;;;;;;;18.85;4.88;;;22.40;78.10;;;;;;4998932;28;20037;-66
2021/06/20 07:22:25;;;;;;;16.10;4.90;;;22.40;78.10;;;;;;4995312;28;20029;-66
2021/06/20 07:24:51;;;;;;;18.40;5.18;;;22.40;78.30;;;;;;4990680;28;20038;-67
2021/06/20 07:27:17;;;;;;;17.17;5.03;;;22.40;78.70;;;;;;4993412;28;20118;-65
2021/06/20 07:29:43;;;;;;;14.25;4.80;;;22.40;78.80;;;;;;4996733;28;20111;-66
2021/06/20 07:32:09;;;;;;;18.13;5.45;;;22.40;78.60;;;;;;4999802;28;20042;-66
2021/06/20 07:34:35;;;;;;;16.23;5.13;;;22.50;78.70;;;;;;4998993;28;20041;-67
2021/06/20 07:37:02;;;;;;;14.63;5.03;;;22.50;78.70;;;;;;4999348;28;20100;-67
2021/06/20 07:39:27;;;;;;;17.15;5.55;;;22.60;79.60;;;;;;4999135;28;20045;-66
2021/06/20 07:41:53;;;;;;;17.42;5.68;;;22.60;78.80;;;;;;4998766;28;20038;-67
2021/06/20 07:44:19;;;;;;;16.75;5.20;;;22.70;78.90;;;;;;4998726;28;20130;-67
2021/06/20 07:46:45;;;;;;;13.48;5.55;;;22.80;78.70;;;;;;4997874;28;20056;-67
2021/06/20 07:49:10;;;;;;;15.07;5.07;;;22.90;79.00;;;;;;4998957;28;20092;-67
2021/06/20 07:51:36;;;;;;;18.13;5.22;;;22.90;78.90;;;;;;4992977;28;20082;-66
2021/06/20 07:54:02;;;;;;;17.40;5.10;;;23.00;78.90;;;;;;5000804;28;20034;-67
2021/06/20 07:56:27;;;;;;;13.45;4.82;;;23.10;78.90;;;;;;4999544;28;20041;-67
2021/06/20 07:58:57;;;;;;;12.07;4.70;;;23.20;78.40;;;;;;4998116;28;20493;-67
2021/06/20 08:01:23;;;;;;;15.48;5.03;;;23.30;78.00;;;;;;5000580;28;20038;-67
2021/06/20 08:03:49;;;;;;;17.58;5.15;;;23.30;77.70;;;;;;4999454;28;20038;-67
2021/06/20 08:06:15;;;;;;;15.43;5.30;;;23.40;78.40;;;;;;4999364;28;21333;-67
2021/06/20 08:08:41;;;;;;;16.95;5.68;;;23.40;77.60;;;;;;4998204;28;20034;-67
2021/06/20 08:11:06;;;;;;;13.32;5.45;;;23.50;77.60;;;;;;4996464;28;20038;-67
2021/06/20 08:13:32;;;;;;;17.00;5.38;;;23.50;77.40;;;;;;5001546;28;20344;-67
2021/06/20 08:15:58;;;;;;;17.40;4.63;;;23.60;77.50;;;;;;4999682;28;20038;-68
2021/06/20 08:18:23;;;;;;;19.80;5.28;;;23.60;77.10;;;;;;5002357;28;20035;-67
2021/06/20 08:20:49;;;;;;;17.08;5.30;;;23.70;77.10;;;;;;4999653;28;20041;-67
2021/06/20 08:23:15;;;;;;;13.07;5.22;;;23.70;77.10;;;;;;5001091;28;20027;-67
2021/06/20 08:25:40;;;;;;;16.15;4.70;;;23.80;77.30;;;;;;4999250;28;20026;-67
2021/06/20 08:28:06;;;;;;;17.83;5.32;;;23.90;77.10;;;;;;5003600;28;20481;-67
2021/06/20 08:30:32;;;;;;;20.40;5.25;;;23.90;77.10;;;;;;4998480;28;20049;-68
2021/06/20 08:32:58;;;;;;;14.98;4.70;;;24.10;77.20;;;;;;4998804;28;20120;-67
2021/06/20 08:35:23;;;;;;;14.90;4.38;;;24.10;76.80;;;;;;4999132;28;20146;-68
2021/06/20 08:37:49;;;;;;;17.10;5.03;;;24.30;76.50;;;;;;5002705;28;20577;-68
2021/06/20 08:40:16;;;;;;;14.55;4.63;;;24.40;76.00;;;;;;5003670;28;20026;-67
2021/06/20 08:42:41;;;;;;;14.95;4.35;;;24.40;76.30;;;;;;4997130;28;20591;-68
2021/06/20 08:45:08;;;;;;;15.93;4.13;;;24.50;75.90;;;;;;4994103;28;20038;-67
2021/06/20 08:47:34;;;;;;;11.40;4.10;;;24.60;75.80;;;;;;4996762;28;20084;-67
2021/06/20 08:50:00;;;;;;;12.10;3.58;;;24.60;75.00;;;;;;4997076;28;20038;-68
2021/06/20 08:52:26;;;;;;;15.60;4.25;;;24.70;74.90;;;;;;4993813;28;20037;-67
2021/06/20 08:55:01;;;;;;;14.35;4.15;;;24.70;75.10;;;;;;4997739;28;20456;-67
2021/06/20 08:57:47;;;;;;;13.55;3.70;;;24.80;74.70;;;;;;4996182;28;20555;-68
2021/06/20 09:00:15;;;;;;;17.05;4.15;;;24.90;74.60;;;;;;4998155;28;20046;-67
2021/06/20 09:02:41;;;;;;;15.55;4.75;;;24.90;74.50;;;;;;4995248;28;20501;-68
2021/06/20 09:05:09;;;;;;;18.58;5.07;;;24.90;74.60;;;;;;4996598;28;20092;-68
2021/06/20 09:07:40;;;;;;;13.73;4.45;;;25.00;74.90;;;;;;4996791;28;20128;-68
2021/06/20 09:10:10;;;;;;;15.73;4.97;;;25.00;74.30;;;;;;4994770;28;20046;-68
2021/06/20 09:12:51;;;;;;;12.82;3.92;;;25.10;74.40;;;;;;5001158;28;20053;-67
2021/06/20 09:15:25;;;;;;;15.93;4.20;;;25.10;74.80;;;;;;5003450;28;20034;-68
2021/06/20 09:17:57;;;;;;;18.27;4.80;;;25.10;74.40;;;;;;4993380;28;20456;-68
2021/06/20 09:20:42;;;;;;;20.98;4.82;;;25.20;74.00;;;;;;4995557;28;20513;-68
2021/06/20 09:23:15;;;;;;;12.27;3.92;;;25.20;74.10;;;;;;4998783;28;20133;-68
2021/06/20 09:25:52;;;;;;;16.52;4.35;;;25.30;73.60;;;;;;4996753;28;20031;-68
2021/06/20 09:28:17;;;;;;;14.02;4.25;;;25.40;73.90;;;;;;5000718;28;20038;-67
2021/06/20 09:30:51;;;;;;;13.98;4.03;;;25.40;74.10;;;;;;4993345;28;20049;-68
2021/06/20 09:33:18;;;;;;;11.40;3.90;;;25.50;73.10;;;;;;4998824;28;20026;-67
2021/06/20 09:35:53;;;;;;;13.88;4.13;;;25.60;72.70;;;;;;4996504;28;20277;-68
2021/06/20 09:38:22;;;;;;;14.63;4.07;;;25.70;72.40;;;;;;4998322;28;20101;-68
2021/06/20 09:40:52;;;;;;;16.60;4.57;;;25.80;72.00;;;;;;4997901;28;20133;-68
2021/06/20 09:43:19;;;;;;;18.38;4.40;;;25.90;72.10;;;;;;4997013;28;20065;-68
2021/06/20 09:45:48;;;;;;;12.82;4.40;;;25.90;72.60;;;;;;4997263;28;20050;-68
2021/06/20 09:48:28;;;;;;;17.05;4.80;;;26.00;72.40;;;;;;4998146;28;20021;-68
2021/06/20 09:50:59;;;;;;;14.40;4.32;;;26.10;72.40;;;;;;4998076;28;20375;-67
2021/06/20 09:53:37;;;;;;;15.80;4.30;;;26.10;72.10;;;;;;4997301;28;20053;-68
2021/06/20 09:56:19;;;;;;;12.90;4.22;;;26.20;71.70;;;;;;5003467;28;20054;-68
2021/06/20 09:58:54;;;;;;;12.77;4.38;;;26.20;71.40;;;;;;4997022;28;20037;-67
2021/06/20 10:01:20;;;;;;;13.20;4.07;;;26.30;70.80;;;;;;4997780;28;20111;-67
2021/06/20 10:03:48;;;;;;;14.57;4.45;;;26.40;70.00;;;;;;4997044;28;20460;-67
2021/06/20 10:06:14;;;;;;;17.45;4.03;;;26.50;69.70;;;;;;4996970;28;20502;-68
2021/06/20 10:08:41;;;;;;;17.83;4.28;;;26.50;69.20;;;;;;4997299;28;20125;-68
2021/06/20 10:11:07;;;;;;;16.08;4.18;;;26.60;69.40;;;;;;4994781;28;20026;-68
2021/06/20 10:13:33;;;;;;;14.05;4.80;;;26.60;68.90;;;;;;4996972;28;20044;-68
2021/06/20 10:16:11;;;;;;;19.00;5.20;;;26.70;68.30;;;;;;4998894;28;20034;-68
2021/06/20 10:18:40;;;;;;;17.95;5.28;;;26.70;68.40;;;;;;5001403;28;20185;-68
2021/06/20 10:21:05;;;;;;;12.40;4.82;;;26.70;68.30;;;;;;5000714;28;20105;-68
2021/06/20 10:23:31;;;;;;;14.35;4.45;;;26.70;68.80;;;;;;5002128;28;20161;-68
2021/06/20 10:26:07;;;;;;;11.65;5.25;;;26.70;68.60;;;;;;5005390;28;20164;-68
2021/06/20 10:28:34;;;;;;;15.20;5.25;;;26.70;68.10;;;;;;5000915;28;20038;-68
2021/06/20 10:31:08;;;;;;;16.90;4.40;;;26.70;68.60;;;;;;5002136;28;20713;-68
2021/06/20 10:33:35;;;;;;;19.70;5.03;;;26.70;66.20;;;;;;5005995;28;20763;-68
2021/06/20 10:36:10;;;;;;;16.58;4.65;;;26.70;66.00;;;;;;5000562;28;20288;-68
2021/06/20 10:38:46;;;;;;;17.20;4.18;;;26.70;65.70;;;;;;5002360;28;20061;-68
2021/06/20 10:41:23;;;;;;;21.58;4.63;;;26.70;65.80;;;;;;5001621;28;20026;-68
2021/06/20 10:44:00;;;;;;;13.60;4.05;;;26.70;65.00;;;;;;5016779;28;20030;-68
2021/06/20 10:46:27;;;;;;;17.90;4.45;;;26.80;64.30;;;;;;5001460;28;20031;-68
2021/06/20 10:48:53;;;;;;;18.77;4.13;;;26.80;65.20;;;;;;5002390;28;20045;-68
2021/06/20 10:51:22;;;;;;;17.23;4.28;;;26.90;66.20;;;;;;4999504;28;20575;-68
2021/06/20 10:53:48;;;;;;;16.58;3.85;;;26.90;66.00;;;;;;5000000;28;20033;-68
2021/06/20 10:56:23;;;;;;;21.23;4.80;;;27.00;65.40;;;;;;5000422;28;20038;-68
2021/06/20 10:58:50;;;;;;;;;;;27.10;65.20;;;;;;5005740;28;20038;-68
2021/06/20 11:01:18;;;;;;;16.90;4.30;;;27.20;65.60;;;;;;4997356;28;19989;-69
2021/06/20 11:03:59;;;;;;;23.52;4.90;;;27.30;65.50;;;;;;4998491;28;20039;-68
2021/06/20 11:06:26;;;;;;;21.75;4.70;;;27.40;64.40;;;;;;5000464;28;20524;-68
2021/06/20 11:09:00;;;;;;;20.50;4.00;;;27.50;64.50;;;;;;4999414;28;20042;-68
2021/06/20 11:11:31;;;;;;;12.77;3.78;;;27.50;63.60;;;;;;4998545;28;20533;-68
2021/06/20 11:13:57;;;;;;;18.77;4.18;;;27.60;64.70;;;;;;5000796;28;20041;-68
2021/06/20 11:16:29;;;;;;;20.60;4.25;;;27.60;63.80;;;;;;4998898;28;20042;-68
2021/06/20 11:19:20;;;;;;;15.18;3.90;;;27.70;63.80;;;;;;5001995;28;20482;-69
2021/06/20 11:22:04;;;;;;;23.15;4.40;;;27.70;63.30;;;;;;5004976;28;20501;-68
2021/06/20 11:24:47;;;;;;;23.15;4.90;;;27.80;62.40;;;;;;4999709;28;20122;-68
2021/06/20 11:27:19;;;;;;;20.42;4.13;;;27.80;62.20;;;;;;5000418;28;20042;-68
2021/06/20 11:29:49;;;;;;;22.13;4.43;;;27.90;62.60;;;;;;4998527;28;20132;-69
2021/06/20 11:32:15;;;;;;;20.92;4.05;;;27.90;61.50;;;;;;4999624;28;20046;-68
2021/06/20 11:34:59;;;;;;;16.80;3.72;;;28.00;62.00;;;;;;5005887;28;20269;-68
2021/06/20 11:37:31;;;;;;;18.88;4.57;;;28.10;62.20;;;;;;4998930;28;20030;-69
2021/06/20 11:40:00;;;;;;;15.40;3.75;;;28.20;61.80;;;;;;5001437;28;20054;-68
2021/06/20 11:42:30;;;;;;;19.10;4.57;;;28.20;61.60;;;;;;4999264;28;20034;-68
2021/06/20 11:45:03;;;;;;;20.85;3.88;;;28.30;60.40;;;;;;4999722;28;20049;-69
2021/06/20 11:47:37;;;;;;;16.30;4.15;;;28.40;59.90;;;;;;5001265;28;20037;-68
2021/06/20 11:50:16;;;;;;;;;;;28.50;60.50;;;;;;5006020;28;20128;-68
2021/06/20 11:52:45;;;;;;;14.50;3.13;;;28.60;60.30;;;;;;4999345;28;19921;-69
2021/06/20 11:55:16;;;;;;;14.65;3.70;;;28.70;59.90;;;;;;5000221;28;20388;-69
2021/06/20 11:57:41;;;;;;;17.25;3.65;;;28.80;59.40;;;;;;5000166;28;20065;-68
2021/06/20 12:00:12;;;;;;;14.32;3.70;;;28.80;58.50;;;;;;4999602;28;20494;-69
2021/06/20 12:02:39;;;;;;;15.80;3.67;;;28.90;58.00;;;;;;5000111;28;20056;-69
2021/06/20 12:05:05;;;;;;;16.85;3.83;;;28.90;58.00;;;;;;4999493;28;20034;-69
2021/06/20 12:07:31;;;;;;;20.05;4.13;;;29.00;57.90;;;;;;5003840;28;20516;-68
2021/06/20 12:09:57;;;;;;;12.18;3.17;;;29.10;57.60;;;;;;4999285;28;20099;-69
2021/06/20 12:12:23;;;;;;;17.23;3.65;;;29.20;57.00;;;;;;5004355;28;20050;-69
2021/06/20 12:14:57;;;;;;;16.35;3.85;;;29.20;56.20;;;;;;5000005;28;20045;-69
2021/06/20 12:17:23;;;;;;;16.77;3.60;;;29.30;55.40;;;;;;5000034;28;20049;-69
2021/06/20 12:19:52;;;;;;;16.73;3.60;;;29.30;55.80;;;;;;4999699;28;20599;-69
2021/06/20 12:22:19;;;;;;;19.15;3.92;;;29.40;56.00;;;;;;4998734;28;20066;-69
2021/06/20 12:24:57;;;;;;;17.25;3.40;;;29.40;55.80;;;;;;4997033;28;20522;-69
2021/06/20 12:27:33;;;;;;;20.10;3.47;;;29.40;53.20;;;;;;4999737;28;20042;-69
2021/06/20 12:30:16;;;;;;;21.05;4.10;;;29.50;54.60;;;;;;5005987;28;20034;-69
2021/06/20 12:32:43;;;;;;;18.33;3.63;;;29.50;55.20;;;;;;4998027;28;20125;-69
2021/06/20 12:35:17;;;;;;;19.30;3.83;;;29.60;55.50;;;;;;5000599;28;20046;-69
2021/06/20 12:37:43;;;;;;;19.63;3.90;;;29.60;55.10;;;;;;4998983;28;20065;-69
2021/06/20 12:40:11;;;;;;;18.63;3.72;;;29.70;54.90;;;;;;5009039;28;20033;-69
2021/06/20 12:43:03;;;;;;;21.20;3.85;;;29.70;55.00;;;;;;4996580;28;20038;-69
2021/06/20 12:45:33;;;;;;;22.63;3.67;;;29.80;54.90;;;;;;5000760;28;20040;-69